Time;durP1;ratioP1;P1;durP2;ratioP2;P2;SDS_P1;SDS_P2;PMS_P1;PMS_P2;Temp;Humidity;BMP_temperature;BMP_pressure;BME280_temperature;BME280_humidity;BME280_pressure;Samples;Min_cycle;Max_cycle;Signal;HPM_P1;HPM_P2
2021/12/19 00:02:08;;;;;;;31.27;13.70;;;0.60;99.90;;;;;;4947533;28;20045;-68
2021/12/19 00:04:53;;;;;;;31.88;13.10;;;0.60;99.90;;;;;;4940868;28;20086;-68
2021/12/19 00:10:03;;;;;;;26.05;11.15;;;0.50;99.90;;;;;;4953312;28;20069;-68
2021/12/19 00:12:28;;;;;;;39.38;13.27;;;0.60;99.90;;;;;;4951209;28;20067;-68
2021/12/19 00:14:54;;;;;;;30.80;12.48;;;0.60;99.90;;;;;;4944749;28;20143;-68
2021/12/19 00:17:20;;;;;;;27.70;12.55;;;0.60;99.90;;;;;;4942554;28;20422;-68
2021/12/19 00:19:45;;;;;;;36.55;13.15;;;0.60;99.90;;;;;;4940451;28;20043;-69
2021/12/19 00:22:11;;;;;;;34.22;14.13;;;0.50;99.90;;;;;;4942245;28;20059;-69
2021/12/19 00:24:36;;;;;;;39.38;15.05;;;0.50;99.90;;;;;;4948822;28;20583;-69
2021/12/19 00:27:02;;;;;;;28.98;12.52;;;0.50;99.90;;;;;;4945436;28;20038;-68
2021/12/19 00:29:28;;;;;;;35.38;13.15;;;0.60;99.90;;;;;;4949454;28;20038;-69
2021/12/19 00:31:54;;;;;;;32.08;11.32;;;0.60;99.90;;;;;;4946641;28;20063;-68
2021/12/19 00:34:19;;;;;;;33.95;13.52;;;0.60;99.90;;;;;;4951013;28;20039;-68
2021/12/19 00:36:45;;;;;;;27.20;11.38;;;0.50;99.90;;;;;;4939466;28;20117;-68
2021/12/19 00:39:11;;;;;;;27.30;10.02;;;0.50;99.90;;;;;;4944972;28;20592;-68
2021/12/19 00:41:37;;;;;;;34.42;12.27;;;0.50;99.90;;;;;;4948667;28;20040;-68
2021/12/19 00:44:09;;;;;;;31.85;13.35;;;0.50;99.90;;;;;;4949968;28;20039;-68
2021/12/19 00:46:43;;;;;;;27.95;11.23;;;0.50;99.90;;;;;;4949143;28;20077;-68
2021/12/19 00:49:10;;;;;;;29.25;12.65;;;0.50;99.90;;;;;;4931054;28;20431;-68
2021/12/19 00:51:35;;;;;;;37.05;13.98;;;0.50;99.90;;;;;;4948984;28;20463;-68
2021/12/19 00:54:01;;;;;;;33.80;12.45;;;0.50;99.90;;;;;;4952976;28;20159;-68
2021/12/19 00:56:27;;;;;;;28.23;12.77;;;0.40;99.90;;;;;;4945927;28;20027;-68
2021/12/19 00:58:53;;;;;;;33.60;12.50;;;0.40;99.90;;;;;;4945159;28;20103;-68
2021/12/19 01:01:19;;;;;;;27.52;11.10;;;0.40;99.90;;;;;;4947138;28;20595;-69
2021/12/19 01:03:47;;;;;;;30.38;13.27;;;0.40;99.90;;;;;;4946932;28;20039;-69
2021/12/19 01:06:16;;;;;;;32.67;11.70;;;0.40;99.90;;;;;;4947066;28;20122;-69
2021/12/19 01:08:41;;;;;;;36.40;13.35;;;0.40;99.90;;;;;;4944655;28;20045;-68
2021/12/19 01:11:07;;;;;;;29.92;11.82;;;0.40;99.90;;;;;;4939839;28;20047;-68
2021/12/19 01:13:33;;;;;;;31.67;13.10;;;0.40;99.90;;;;;;4954309;28;20056;-68
2021/12/19 01:16:00;;;;;;;33.10;11.05;;;0.40;99.90;;;;;;4952761;28;20038;-68
2021/12/19 01:18:26;;;;;;;30.03;12.43;;;0.40;99.90;;;;;;4930343;28;20051;-68
2021/12/19 01:20:52;;;;;;;27.35;11.50;;;0.40;99.90;;;;;;4957023;28;20290;-69
2021/12/19 01:23:18;;;;;;;31.27;11.45;;;0.40;99.90;;;;;;4953968;28;20027;-69
2021/12/19 01:25:43;;;;;;;28.25;13.00;;;0.40;99.90;;;;;;4949246;28;20074;-69
2021/12/19 01:28:09;;;;;;;26.70;10.90;;;0.30;99.90;;;;;;4947837;28;20070;-68
2021/12/19 01:30:35;;;;;;;28.25;9.95;;;0.30;99.90;;;;;;4946715;28;20054;-68
2021/12/19 01:33:01;;;;;;;27.40;11.10;;;0.30;99.90;;;;;;4954242;28;20081;-68
2021/12/19 01:35:26;;;;;;;30.58;11.68;;;0.40;99.90;;;;;;4951879;28;20078;-68
2021/12/19 01:37:52;;;;;;;30.98;10.73;;;0.40;99.90;;;;;;4948976;28;20032;-69
2021/12/19 01:40:19;;;;;;;41.25;12.95;;;0.30;99.90;;;;;;4952253;28;20459;-68
2021/12/19 01:42:47;;;;;;;27.50;10.98;;;0.30;99.90;;;;;;4947881;28;20034;-68
2021/12/19 01:45:20;;;;;;;37.50;11.67;;;0.30;99.90;;;;;;4946140;28;20031;-68
2021/12/19 01:47:47;;;;;;;40.20;11.40;;;0.30;99.90;;;;;;4946855;28;20091;-68
2021/12/19 01:50:12;;;;;;;35.50;12.18;;;0.30;99.90;;;;;;4949310;28;20159;-68
2021/12/19 01:52:38;;;;;;;35.28;11.82;;;0.30;99.90;;;;;;4959006;28;20145;-68
2021/12/19 01:55:05;;;;;;;28.08;11.23;;;0.30;99.90;;;;;;4950477;28;20030;-68
2021/12/19 01:57:31;;;;;;;29.60;10.13;;;0.30;99.90;;;;;;4951883;28;20042;-68
2021/12/19 01:59:56;;;;;;;29.83;11.02;;;0.30;99.90;;;;;;4955924;28;20035;-68
2021/12/19 02:02:22;;;;;;;30.05;10.68;;;0.30;99.90;;;;;;4945572;28;21008;-68
2021/12/19 02:04:48;;;;;;;24.20;9.35;;;0.30;99.90;;;;;;4951553;28;20490;-68
2021/12/19 02:07:15;;;;;;;26.98;10.55;;;0.30;99.90;;;;;;4944527;28;20027;-68
2021/12/19 02:09:44;;;;;;;23.77;8.48;;;0.30;99.90;;;;;;4947241;28;20035;-68
2021/12/19 02:12:11;;;;;;;32.42;8.90;;;0.30;99.90;;;;;;4934232;28;20051;-69
2021/12/19 02:14:37;;;;;;;35.65;10.63;;;0.30;99.90;;;;;;4946416;28;20086;-68
2021/12/19 02:17:04;;;;;;;22.13;9.60;;;0.20;99.90;;;;;;4944420;28;22259;-68
2021/12/19 02:19:31;;;;;;;31.10;11.35;;;0.30;99.90;;;;;;4943630;28;20533;-68
2021/12/19 02:21:57;;;;;;;32.92;9.77;;;0.30;99.90;;;;;;4941850;28;20134;-68
2021/12/19 02:24:22;;;;;;;23.08;9.57;;;0.20;99.90;;;;;;4944229;28;20031;-68
2021/12/19 02:26:48;;;;;;;38.17;12.15;;;0.20;99.90;;;;;;4944986;28;20050;-68
2021/12/19 02:29:14;;;;;;;24.35;9.13;;;0.20;99.90;;;;;;4942647;28;20144;-69
2021/12/19 02:31:40;;;;;;;30.05;11.57;;;0.30;99.90;;;;;;4945798;28;20066;-68
2021/12/19 02:34:23;;;;;;;26.80;9.60;;;0.30;99.90;;;;;;4946511;28;20038;-68
2021/12/19 02:37:02;;;;;;;26.77;8.68;;;0.30;99.90;;;;;;4950433;28;20118;-69
2021/12/19 02:50:25;;;;;;;22.17;7.57;;;0.10;99.90;;;;;;4941117;28;20406;-68
2021/12/19 02:52:52;;;;;;;25.55;9.20;;;0.20;99.90;;;;;;4939615;28;20032;-68
2021/12/19 02:55:19;;;;;;;52.33;10.02;;;0.20;99.90;;;;;;4943954;28;20082;-68
2021/12/19 02:57:46;;;;;;;26.45;9.70;;;0.10;99.90;;;;;;4941399;28;20077;-68
2021/12/19 03:00:18;;;;;;;65.95;10.98;;;0.20;99.90;;;;;;4949930;28;20038;-68
2021/12/19 03:02:44;;;;;;;25.02;9.75;;;0.20;99.90;;;;;;4944438;28;20360;-68
2021/12/19 03:05:10;;;;;;;47.20;10.25;;;0.20;99.90;;;;;;4942914;28;20074;-68
2021/12/19 03:07:43;;;;;;;23.00;9.60;;;0.20;99.90;;;;;;4942627;28;20077;-69
2021/12/19 03:13:25;;;;;;;46.78;8.18;;;0.20;99.90;;;;;;4945901;28;20058;-69
2021/12/19 03:18:38;;;;;;;25.77;8.23;;;0.20;99.90;;;;;;4947063;28;20558;-68
2021/12/19 03:21:04;;;;;;;52.08;10.35;;;0.20;99.90;;;;;;4937481;28;20153;-68
2021/12/19 03:23:29;;;;;;;24.27;8.43;;;0.20;99.90;;;;;;4942530;28;20732;-69
2021/12/19 03:25:55;;;;;;;29.05;9.35;;;0.10;99.90;;;;;;4944532;28;20035;-68
2021/12/19 03:28:21;;;;;;;26.83;10.63;;;0.20;99.90;;;;;;4943807;28;20070;-68
2021/12/19 03:30:48;;;;;;;32.40;11.15;;;0.20;99.90;;;;;;4942422;28;20055;-68
2021/12/19 03:33:15;;;;;;;26.92;10.00;;;0.30;99.90;;;;;;4943500;28;20492;-69
2021/12/19 03:35:42;;;;;;;24.58;8.95;;;0.30;99.90;;;;;;4944340;28;20493;-68
2021/12/19 03:38:10;;;;;;;20.65;7.25;;;0.30;99.90;;;;;;4944432;28;20078;-68
2021/12/19 03:40:39;;;;;;;20.98;8.23;;;0.30;99.90;;;;;;4947872;28;20034;-68
2021/12/19 03:43:08;;;;;;;18.42;8.43;;;0.30;99.90;;;;;;4941953;28;20754;-68
2021/12/19 03:45:34;;;;;;;21.17;7.57;;;0.20;99.90;;;;;;4946032;28;20466;-68
2021/12/19 03:48:03;;;;;;;20.42;9.20;;;0.20;99.90;;;;;;4941838;28;20063;-68
2021/12/19 03:50:32;;;;;;;23.88;9.50;;;0.20;99.90;;;;;;4943219;28;20159;-68
2021/12/19 03:52:59;;;;;;;23.92;7.72;;;0.20;99.90;;;;;;4942176;28;20046;-68
2021/12/19 03:55:26;;;;;;;23.27;8.35;;;0.20;99.90;;;;;;4942833;28;20737;-68
2021/12/19 03:57:52;;;;;;;25.52;7.85;;;0.20;99.90;;;;;;4944450;28;20117;-68
2021/12/19 04:00:24;;;;;;;28.33;10.00;;;0.20;99.90;;;;;;4937177;28;20122;-68
2021/12/19 04:02:53;;;;;;;35.63;9.52;;;0.20;99.90;;;;;;4940407;28;20043;-68
2021/12/19 04:05:19;;;;;;;40.17;7.40;;;0.20;99.90;;;;;;4942476;28;20031;-69
2021/12/19 04:07:44;;;;;;;19.20;7.68;;;0.20;99.90;;;;;;4944857;28;20035;-68
2021/12/19 04:10:10;;;;;;;19.30;8.02;;;0.20;99.90;;;;;;4941449;28;20105;-68
2021/12/19 04:12:36;;;;;;;20.77;7.32;;;0.20;99.90;;;;;;4942406;28;20496;-68
2021/12/19 04:15:03;;;;;;;47.85;7.28;;;0.20;99.90;;;;;;4942717;28;20043;-68
2021/12/19 04:17:29;;;;;;;15.27;5.78;;;0.10;99.90;;;;;;4946978;28;20039;-68
2021/12/19 04:19:54;;;;;;;27.58;8.73;;;0.10;99.90;;;;;;4943090;28;20039;-68
2021/12/19 04:22:20;;;;;;;20.00;7.68;;;0.10;99.90;;;;;;4945081;28;20031;-68
2021/12/19 04:24:46;;;;;;;21.73;7.30;;;0.00;99.90;;;;;;4947002;28;20068;-71
2021/12/19 04:27:11;;;;;;;17.63;7.47;;;0.00;99.90;;;;;;4943262;28;20042;-68
2021/12/19 04:29:37;;;;;;;20.02;7.38;;;0.00;99.90;;;;;;4943456;28;20035;-68
2021/12/19 04:32:03;;;;;;;21.55;8.15;;;0.00;99.90;;;;;;4939058;28;20043;-68
2021/12/19 04:34:28;;;;;;;29.55;9.68;;;0.00;99.90;;;;;;4941237;28;20031;-69
2021/12/19 04:37:02;;;;;;;23.92;8.05;;;0.10;99.90;;;;;;4925408;28;20031;-69
2021/12/19 04:39:53;;;;;;;31.08;11.00;;;0.10;99.90;;;;;;4941193;28;20471;-68
2021/12/19 04:53:17;;;;;;;18.40;6.68;;;0.00;99.90;;;;;;4944301;28;20425;-68
2021/12/19 05:01:20;;;;;;;27.63;9.88;;;0.10;99.90;;;;;;4942742;28;20042;-68
2021/12/19 05:03:56;;;;;;;24.90;9.02;;;0.10;99.90;;;;;;4947072;28;20438;-68
2021/12/19 05:06:48;;;;;;;31.17;11.27;;;0.00;99.90;;;;;;4933171;28;20039;-68
2021/12/19 05:14:22;;;;;;;25.92;9.65;;;0.00;99.90;;;;;;4941667;28;20114;-68
2021/12/19 05:16:50;;;;;;;31.35;11.60;;;-0.10;99.90;;;;;;4950196;28;20083;-69
2021/12/19 05:19:34;;;;;;;33.67;10.63;;;0.00;99.90;;;;;;4941513;28;20161;-68
2021/12/19 05:22:02;;;;;;;17.63;6.32;;;0.00;99.90;;;;;;4945259;28;20518;-68
2021/12/19 05:27:06;;;;;;;23.17;8.27;;;0.00;99.90;;;;;;4949254;28;20462;-68
2021/12/19 05:29:33;;;;;;;23.45;8.50;;;0.00;99.90;;;;;;4945705;28;20114;-68
2021/12/19 05:31:59;;;;;;;24.00;8.73;;;0.00;99.90;;;;;;4946709;28;20043;-67
2021/12/19 05:34:26;;;;;;;20.05;7.18;;;0.00;99.90;;;;;;4947381;28;20050;-68
2021/12/19 05:47:30;;;;;;;24.27;10.65;;;-0.20;99.90;;;;;;4947362;28;20046;-69
2021/12/19 05:49:56;;;;;;;22.40;8.50;;;-0.20;99.90;;;;;;4943345;28;20039;-69
2021/12/19 05:52:21;;;;;;;20.42;7.43;;;-0.20;99.90;;;;;;4943111;28;20166;-68
2021/12/19 05:54:47;;;;;;;22.48;8.00;;;-0.20;99.90;;;;;;4947890;28;20114;-68
2021/12/19 05:57:15;;;;;;;28.08;11.10;;;-0.20;99.90;;;;;;4946919;28;20063;-68
2021/12/19 05:59:40;;;;;;;19.55;8.32;;;-0.20;99.90;;;;;;4942962;28;20115;-68
2021/12/19 06:02:06;;;;;;;23.77;8.68;;;-0.20;99.90;;;;;;4942664;28;20047;-68
2021/12/19 06:04:32;;;;;;;21.25;7.78;;;-0.20;99.90;;;;;;4945986;28;20121;-68
2021/12/19 06:06:58;;;;;;;22.98;8.68;;;-0.20;99.90;;;;;;4945024;28;20042;-68
2021/12/19 06:09:24;;;;;;;18.38;8.20;;;-0.30;99.90;;;;;;4952082;28;20031;-68
2021/12/19 06:11:49;;;;;;;23.77;10.60;;;-0.20;99.90;;;;;;4940714;28;20054;-68
2021/12/19 06:14:15;;;;;;;19.58;8.57;;;-0.20;99.90;;;;;;4948633;28;21089;-68
2021/12/19 06:16:41;;;;;;;28.15;9.32;;;-0.20;99.90;;;;;;4947972;28;20027;-67
2021/12/19 06:19:06;;;;;;;22.20;8.43;;;-0.20;99.90;;;;;;4941549;28;20057;-68
2021/12/19 06:21:32;;;;;;;31.40;10.20;;;-0.20;99.90;;;;;;4947721;28;20035;-68
2021/12/19 06:23:57;;;;;;;22.00;9.98;;;-0.20;99.90;;;;;;4946288;28;20031;-68
2021/12/19 06:26:23;;;;;;;24.58;9.20;;;-0.20;99.90;;;;;;4947240;28;20039;-68
2021/12/19 06:28:49;;;;;;;28.58;9.57;;;-0.20;99.90;;;;;;4948398;28;20042;-68
2021/12/19 06:31:17;;;;;;;21.45;8.70;;;-0.20;99.90;;;;;;4945762;28;20138;-69
2021/12/19 06:33:42;;;;;;;21.38;7.18;;;-0.20;99.90;;;;;;4948699;28;20030;-68
2021/12/19 06:36:09;;;;;;;20.75;9.27;;;-0.20;99.90;;;;;;4944606;28;20045;-68
2021/12/19 06:38:35;;;;;;;24.80;9.52;;;-0.20;99.90;;;;;;4945618;28;20042;-68
2021/12/19 06:41:01;;;;;;;20.58;9.35;;;-0.20;99.90;;;;;;4943617;28;20035;-68
2021/12/19 06:43:28;;;;;;;24.08;8.48;;;-0.20;99.90;;;;;;4940782;28;20027;-68
2021/12/19 06:45:56;;;;;;;19.73;9.65;;;-0.20;99.90;;;;;;4944131;28;20482;-69
2021/12/19 06:48:24;;;;;;;20.33;9.13;;;-0.20;99.90;;;;;;4948793;28;20085;-68
2021/12/19 06:50:50;;;;;;;23.63;9.20;;;-0.20;99.90;;;;;;4940943;28;20479;-68
2021/12/19 06:53:16;;;;;;;13.73;6.65;;;-0.20;99.90;;;;;;4943189;28;20054;-68
2021/12/19 06:55:42;;;;;;;22.13;7.88;;;-0.20;99.90;;;;;;4947151;28;20106;-69
2021/12/19 06:58:07;;;;;;;21.08;7.60;;;-0.20;99.90;;;;;;4940610;28;20391;-69
2021/12/19 07:00:33;;;;;;;19.05;8.02;;;-0.20;99.90;;;;;;4946223;28;20086;-69
2021/12/19 07:02:59;;;;;;;19.60;7.35;;;-0.20;99.90;;;;;;4943527;28;20031;-69
2021/12/19 07:05:25;;;;;;;20.52;8.98;;;-0.20;99.90;;;;;;4941769;28;20123;-69
2021/12/19 07:07:50;;;;;;;22.10;8.63;;;-0.20;99.90;;;;;;4944099;28;20075;-68
2021/12/19 07:10:16;;;;;;;20.40;8.15;;;-0.20;99.90;;;;;;4944374;28;20397;-68
2021/12/19 07:12:42;;;;;;;18.73;7.35;;;-0.30;99.90;;;;;;4943289;28;20106;-68
2021/12/19 07:15:09;;;;;;;21.38;8.43;;;-0.30;99.90;;;;;;4947100;28;20027;-69
2021/12/19 07:17:34;;;;;;;19.90;8.23;;;-0.30;99.90;;;;;;4945447;28;20378;-68
2021/12/19 07:20:00;;;;;;;22.08;8.95;;;-0.30;99.90;;;;;;4944907;28;20038;-68
2021/12/19 07:22:26;;;;;;;24.45;10.00;;;-0.30;99.90;;;;;;4943333;28;20620;-68
2021/12/19 07:24:51;;;;;;;19.67;7.40;;;-0.30;99.90;;;;;;4942360;28;20027;-69
2021/12/19 07:27:17;;;;;;;15.50;7.63;;;-0.30;99.90;;;;;;4950015;28;20046;-68
2021/12/19 07:29:43;;;;;;;20.50;9.02;;;-0.30;99.90;;;;;;4945134;28;20030;-69
2021/12/19 07:32:10;;;;;;;21.85;8.45;;;-0.30;99.90;;;;;;4940829;28;21008;-68
2021/12/19 07:34:37;;;;;;;20.02;7.28;;;-0.30;99.90;;;;;;4945135;28;20434;-68
2021/12/19 07:37:04;;;;;;;18.70;7.40;;;-0.30;99.90;;;;;;4946870;28;20436;-68
2021/12/19 07:42:02;;;;;;;13.10;6.85;;;-0.20;99.90;;;;;;4939556;28;20031;-68
2021/12/19 07:44:28;;;;;;;17.83;6.72;;;-0.20;99.90;;;;;;4946480;28;20475;-69
2021/12/19 07:46:54;;;;;;;17.10;6.85;;;-0.20;99.90;;;;;;4949874;28;20107;-68
2021/12/19 07:49:20;;;;;;;17.17;6.97;;;-0.20;99.90;;;;;;4943425;28;20110;-68
2021/12/19 07:51:45;;;;;;;26.70;9.48;;;-0.20;99.90;;;;;;4942033;28;20534;-68
2021/12/19 07:54:11;;;;;;;21.40;7.35;;;-0.20;99.90;;;;;;4946040;28;20057;-68
2021/12/19 07:56:37;;;;;;;21.60;9.43;;;-0.20;99.90;;;;;;4941304;28;20521;-69
2021/12/19 07:59:03;;;;;;;35.85;8.23;;;-0.30;99.90;;;;;;4944430;28;20178;-69
2021/12/19 08:01:29;;;;;;;19.88;6.80;;;-0.20;99.90;;;;;;4941969;28;20054;-69
2021/12/19 08:03:54;;;;;;;21.45;9.32;;;-0.30;99.90;;;;;;4941444;28;20030;-69
2021/12/19 08:06:20;;;;;;;20.00;8.30;;;-0.20;99.90;;;;;;4941994;28;20386;-69
2021/12/19 08:08:51;;;;;;;21.17;9.38;;;-0.20;99.90;;;;;;4943895;28;20502;-69
2021/12/19 08:14:02;;;;;;;25.63;7.68;;;-0.20;99.90;;;;;;4940108;28;20513;-69
2021/12/19 08:16:28;;;;;;;13.93;5.88;;;-0.30;99.90;;;;;;4938492;28;20425;-69
2021/12/19 08:18:53;;;;;;;19.60;7.47;;;-0.30;99.90;;;;;;4943913;28;20035;-68
2021/12/19 08:21:20;;;;;;;14.07;6.85;;;-0.30;99.90;;;;;;4937633;28;20043;-68
2021/12/19 08:23:45;;;;;;;16.40;6.97;;;-0.30;99.90;;;;;;4945201;28;20828;-68
2021/12/19 08:26:12;;;;;;;20.52;9.27;;;-0.30;99.90;;;;;;4950961;28;20035;-68
2021/12/19 08:28:38;;;;;;;27.17;8.63;;;-0.30;99.90;;;;;;4931226;28;20027;-68
2021/12/19 08:31:03;;;;;;;13.65;5.88;;;-0.20;99.90;;;;;;4951875;28;20051;-69
2021/12/19 08:33:29;;;;;;;21.20;6.40;;;-0.20;99.90;;;;;;4947254;28;20027;-69
2021/12/19 08:35:55;;;;;;;15.77;6.82;;;-0.30;99.90;;;;;;4944782;28;20859;-69
2021/12/19 08:38:21;;;;;;;22.58;8.10;;;-0.40;99.90;;;;;;4943971;28;20039;-68
2021/12/19 08:40:49;;;;;;;16.13;6.40;;;-0.40;99.90;;;;;;4947633;28;20039;-68
2021/12/19 08:43:16;;;;;;;21.23;7.43;;;-0.30;99.90;;;;;;4941235;28;20038;-69
2021/12/19 08:45:42;;;;;;;20.15;6.82;;;-0.30;99.90;;;;;;4945536;28;20035;-68
2021/12/19 08:48:07;;;;;;;15.55;7.05;;;-0.30;99.90;;;;;;4942129;28;20189;-69
2021/12/19 08:50:33;;;;;;;19.67;6.72;;;-0.30;99.90;;;;;;4943949;28;20039;-69
2021/12/19 08:52:59;;;;;;;19.25;6.85;;;-0.30;99.90;;;;;;4941918;28;20050;-69
2021/12/19 08:55:24;;;;;;;21.73;7.55;;;-0.30;99.90;;;;;;4943261;28;20038;-68
2021/12/19 08:57:50;;;;;;;11.93;5.32;;;-0.30;99.90;;;;;;4951536;28;20157;-68
2021/12/19 09:00:18;;;;;;;17.40;6.47;;;-0.30;99.90;;;;;;4944919;28;20062;-69
2021/12/19 09:02:46;;;;;;;24.57;9.10;;;-0.30;99.90;;;;;;4948076;28;20039;-69
2021/12/19 09:05:13;;;;;;;22.20;8.27;;;-0.30;99.90;;;;;;4946863;28;20043;-69
2021/12/19 09:07:39;;;;;;;19.48;6.57;;;-0.30;99.90;;;;;;4942838;28;20951;-69
2021/12/19 09:10:06;;;;;;;12.85;7.68;;;-0.30;99.90;;;;;;4945809;28;20106;-69
2021/12/19 09:12:32;;;;;;;37.20;7.35;;;-0.20;99.90;;;;;;4943266;28;20054;-69
2021/12/19 09:14:57;;;;;;;23.00;7.57;;;-0.20;99.90;;;;;;4942716;28;20030;-69
2021/12/19 09:17:23;;;;;;;21.23;8.30;;;-0.20;99.90;;;;;;4947338;28;20059;-69
2021/12/19 09:19:49;;;;;;;14.98;7.85;;;-0.20;99.90;;;;;;4947680;28;20035;-69
2021/12/19 09:22:14;;;;;;;19.75;7.60;;;-0.20;99.90;;;;;;4945443;28;20035;-69
2021/12/19 09:24:40;;;;;;;12.05;6.03;;;-0.20;99.90;;;;;;4949900;28;20454;-69
2021/12/19 09:27:07;;;;;;;14.60;6.65;;;-0.20;99.90;;;;;;4949545;28;20044;-69
2021/12/19 09:29:34;;;;;;;18.58;7.45;;;-0.10;99.90;;;;;;4949428;28;20493;-69
2021/12/19 09:31:59;;;;;;;18.52;7.32;;;-0.10;99.90;;;;;;4945079;28;20058;-69
2021/12/19 09:34:26;;;;;;;19.90;7.47;;;-0.10;99.90;;;;;;4948695;28;20035;-69
2021/12/19 09:36:53;;;;;;;18.35;7.22;;;-0.10;99.90;;;;;;4948326;28;20066;-68
2021/12/19 09:39:19;;;;;;;18.90;7.57;;;-0.10;99.90;;;;;;4947490;28;20031;-69
2021/12/19 09:41:46;;;;;;;11.80;5.50;;;-0.10;99.90;;;;;;4945350;28;20046;-69
2021/12/19 09:44:14;;;;;;;13.70;7.53;;;0.00;99.90;;;;;;4938939;28;20035;-69
2021/12/19 09:46:43;;;;;;;14.73;8.55;;;-0.10;99.90;;;;;;4947694;28;20082;-69
2021/12/19 09:49:12;;;;;;;15.38;5.07;;;0.00;99.90;;;;;;4948607;28;20062;-68
2021/12/19 09:51:38;;;;;;;14.07;6.22;;;-0.10;99.90;;;;;;4943173;28;20489;-69
2021/12/19 09:54:05;;;;;;;24.75;7.18;;;-0.10;99.90;;;;;;4935451;28;20031;-69
2021/12/19 09:56:33;;;;;;;18.23;8.85;;;-0.10;99.90;;;;;;4939252;28;20040;-69
2021/12/19 09:59:00;;;;;;;16.83;7.70;;;-0.10;99.90;;;;;;4948976;28;20042;-67
2021/12/19 10:01:26;;;;;;;21.67;8.73;;;0.00;99.90;;;;;;4944726;28;20075;-68
2021/12/19 10:03:52;;;;;;;23.58;7.82;;;0.00;99.90;;;;;;4939181;28;20118;-68
2021/12/19 10:06:26;;;;;;;23.50;7.60;;;0.00;99.90;;;;;;4944301;28;20039;-69
2021/12/19 10:09:12;;;;;;;19.73;7.28;;;0.00;99.90;;;;;;4945810;28;20070;-69
2021/12/19 10:14:32;;;;;;;20.67;7.18;;;0.10;99.90;;;;;;4942537;28;20043;-69
2021/12/19 10:17:04;;;;;;;16.02;6.93;;;0.00;99.90;;;;;;4944054;28;20036;-69
2021/12/19 10:19:51;;;;;;;15.38;8.13;;;0.00;99.90;;;;;;4943108;28;20760;-69
2021/12/19 10:22:25;;;;;;;11.73;6.55;;;0.00;99.90;;;;;;4947317;28;20502;-69
2021/12/19 10:24:52;;;;;;;17.92;6.70;;;0.10;99.90;;;;;;4943012;28;20035;-69
2021/12/19 10:27:35;;;;;;;18.90;6.82;;;0.10;99.90;;;;;;4943271;28;20481;-68
2021/12/19 10:30:03;;;;;;;17.63;7.75;;;0.00;99.90;;;;;;4947060;28;20035;-69
2021/12/19 10:32:29;;;;;;;17.70;8.00;;;0.00;99.90;;;;;;4939291;28;20054;-67
2021/12/19 10:35:15;;;;;;;21.20;8.65;;;0.10;99.90;;;;;;4945143;28;20038;-70
2021/12/19 10:37:41;;;;;;;12.73;6.07;;;0.00;99.90;;;;;;4945622;28;20031;-69
2021/12/19 10:40:07;;;;;;;18.85;7.35;;;0.00;99.90;;;;;;4940957;28;20411;-68
2021/12/19 10:42:46;;;;;;;17.85;7.63;;;0.00;99.90;;;;;;4944819;28;20131;-69
2021/12/19 10:45:29;;;;;;;;;;;0.00;99.90;;;;;;4940461;28;20041;-69
2021/12/19 10:48:13;;;;;;;12.82;5.90;;;0.00;99.90;;;;;;4940927;28;20367;-69
2021/12/19 10:50:53;;;;;;;15.20;6.18;;;0.10;99.90;;;;;;4941600;28;20043;-69
2021/12/19 10:53:24;;;;;;;17.40;7.43;;;0.10;99.90;;;;;;4943310;28;20070;-69
2021/12/19 10:55:50;;;;;;;14.77;6.43;;;0.10;99.90;;;;;;4940747;28;20077;-68
2021/12/19 10:58:24;;;;;;;14.70;5.88;;;0.20;99.90;;;;;;4938425;28;20675;-68
2021/12/19 11:01:21;;;;;;;14.73;8.25;;;0.20;99.90;;;;;;4938073;28;20046;-68
2021/12/19 11:03:48;;;;;;;12.50;6.32;;;0.10;99.90;;;;;;4924443;28;21455;-69
2021/12/19 11:06:18;;;;;;;21.23;9.85;;;0.20;99.90;;;;;;4939621;28;20490;-69
2021/12/19 11:08:45;;;;;;;16.23;7.10;;;0.20;99.90;;;;;;4936986;28;20046;-69
2021/12/19 11:11:12;;;;;;;15.50;7.00;;;0.10;99.90;;;;;;4941871;28;20050;-69
2021/12/19 11:13:39;;;;;;;15.48;8.23;;;0.20;99.90;;;;;;4942622;28;20110;-69
2021/12/19 11:16:05;;;;;;;17.55;8.05;;;0.20;99.90;;;;;;4938558;28;20931;-69
2021/12/19 11:18:31;;;;;;;13.02;5.90;;;0.20;99.90;;;;;;4939482;28;20035;-68
2021/12/19 11:20:57;;;;;;;16.42;6.07;;;0.30;99.90;;;;;;4939164;28;20138;-68
2021/12/19 11:23:26;;;;;;;14.68;7.45;;;0.20;99.90;;;;;;4936257;28;20035;-68
2021/12/19 11:25:53;;;;;;;15.80;7.40;;;0.30;99.90;;;;;;4939532;28;20071;-68
2021/12/19 11:28:19;;;;;;;14.55;7.70;;;0.30;99.90;;;;;;4937990;28;20505;-69
2021/12/19 11:30:45;;;;;;;14.30;7.25;;;0.20;99.90;;;;;;4933377;28;20062;-68
2021/12/19 11:33:22;;;;;;;15.10;5.32;;;0.30;99.90;;;;;;4939187;28;20133;-68
2021/12/19 11:35:50;;;;;;;16.02;7.82;;;0.30;99.90;;;;;;4938925;28;20063;-68
2021/12/19 11:38:21;;;;;;;14.60;6.35;;;0.30;99.90;;;;;;4942330;28;20034;-68
2021/12/19 11:40:47;;;;;;;16.58;6.03;;;0.30;99.90;;;;;;4943308;28;20067;-68
2021/12/19 11:43:14;;;;;;;17.42;6.53;;;0.30;99.90;;;;;;4942176;28;20482;-69
2021/12/19 11:45:45;;;;;;;16.65;7.18;;;0.40;99.90;;;;;;4941300;28;20069;-69
2021/12/19 11:48:15;;;;;;;13.90;6.75;;;0.40;99.90;;;;;;4940950;28;20078;-69
2021/12/19 11:51:00;;;;;;;18.80;7.90;;;0.40;99.90;;;;;;4941458;28;20039;-68
2021/12/19 11:53:30;;;;;;;16.63;7.70;;;0.40;99.90;;;;;;4935963;28;20043;-68
2021/12/19 11:56:04;;;;;;;17.15;7.00;;;0.40;99.90;;;;;;4944863;28;20040;-68
2021/12/19 11:58:36;;;;;;;17.80;8.65;;;0.40;99.90;;;;;;4939638;28;20035;-69
2021/12/19 12:01:08;;;;;;;16.27;8.40;;;0.40;99.90;;;;;;4942920;28;20129;-69
2021/12/19 12:04:13;;;;;;;45.35;20.30;;;0.50;99.90;;;;;;4939998;28;20035;-69
2021/12/19 12:06:42;;;;;;;32.40;16.15;;;0.50;99.90;;;;;;4934804;28;20382;-68
2021/12/19 12:09:20;;;;;;;12.35;7.03;;;0.50;99.90;;;;;;4943346;28;20054;-69
2021/12/19 12:12:07;;;;;;;17.17;7.75;;;0.50;99.90;;;;;;4939228;28;20461;-69
2021/12/19 12:14:37;;;;;;;14.50;7.70;;;0.50;99.90;;;;;;4941607;28;20046;-69
2021/12/19 12:17:09;;;;;;;13.27;6.07;;;0.50;99.90;;;;;;4941102;28;20031;-68
2021/12/19 12:19:57;;;;;;;15.48;6.95;;;0.50;99.90;;;;;;4941721;28;20031;-68
2021/12/19 12:22:26;;;;;;;11.88;5.82;;;0.50;99.90;;;;;;4938614;28;20028;-69
2021/12/19 12:25:08;;;;;;;14.65;6.82;;;0.60;99.90;;;;;;4940788;28;20122;-68
2021/12/19 12:27:44;;;;;;;11.93;5.40;;;0.50;99.90;;;;;;4940088;28;20122;-68
2021/12/19 12:30:26;;;;;;;19.60;6.18;;;0.50;99.90;;;;;;4939382;28;20054;-68
2021/12/19 12:32:54;;;;;;;8.95;5.10;;;0.50;99.90;;;;;;4935349;28;20706;-69
2021/12/19 12:35:21;;;;;;;10.13;5.35;;;0.60;99.90;;;;;;4941315;28;20925;-68
2021/12/19 12:37:48;;;;;;;14.23;6.43;;;0.60;99.90;;;;;;4939856;28;20423;-69
2021/12/19 12:43:01;;;;;;;;;;;0.60;99.90;;;;;;4937433;28;20759;-68
2021/12/19 12:45:29;;;;;;;12.35;5.18;;;0.60;99.90;;;;;;4937411;28;20468;-68
2021/12/19 12:47:55;;;;;;;17.08;6.78;;;0.70;99.90;;;;;;4936184;28;20286;-68
2021/12/19 12:50:21;;;;;;;15.07;5.95;;;0.70;99.90;;;;;;4936073;28;20054;-68
2021/12/19 12:52:47;;;;;;;9.38;4.80;;;0.70;99.90;;;;;;4937798;28;20044;-68
2021/12/19 12:55:16;;;;;;;13.23;6.22;;;0.70;99.90;;;;;;4937274;28;20043;-69
2021/12/19 12:57:44;;;;;;;15.60;5.97;;;0.70;99.90;;;;;;4936445;28;20034;-68
2021/12/19 13:00:26;;;;;;;11.27;6.30;;;0.60;99.90;;;;;;4939168;28;20152;-68
2021/12/19 13:03:09;;;;;;;14.23;6.28;;;0.60;99.90;;;;;;4944415;28;20310;-68
2021/12/19 13:05:35;;;;;;;8.93;5.32;;;0.70;99.90;;;;;;4943665;28;20134;-69
2021/12/19 13:08:00;;;;;;;10.98;5.38;;;0.70;99.90;;;;;;4943446;28;20038;-69
2021/12/19 13:10:26;;;;;;;11.38;6.07;;;0.60;99.90;;;;;;4941970;28;20040;-69
2021/12/19 13:12:51;;;;;;;9.82;5.80;;;0.60;99.90;;;;;;4947809;28;20175;-69
2021/12/19 13:15:17;;;;;;;13.25;5.60;;;0.70;99.90;;;;;;4948748;28;20474;-68
2021/12/19 13:17:48;;;;;;;14.40;6.15;;;0.80;99.90;;;;;;4944898;28;20090;-68
2021/12/19 13:20:25;;;;;;;18.90;9.02;;;0.70;99.90;;;;;;4953934;28;20050;-69
2021/12/19 13:22:56;;;;;;;67.85;10.27;;;0.70;99.90;;;;;;4944894;28;20042;-68
2021/12/19 13:25:39;;;;;;;10.38;5.88;;;0.70;99.90;;;;;;4945462;28;20028;-68
2021/12/19 13:28:12;;;;;;;14.50;6.90;;;0.80;99.90;;;;;;4942451;28;20133;-68
2021/12/19 13:30:41;;;;;;;12.77;5.22;;;0.80;99.90;;;;;;4945138;28;20051;-68
2021/12/19 13:33:08;;;;;;;14.90;6.80;;;0.80;99.90;;;;;;4946479;28;20062;-68
2021/12/19 13:35:37;;;;;;;9.55;5.25;;;0.70;99.90;;;;;;4949450;28;20086;-69
2021/12/19 13:38:14;;;;;;;13.00;6.32;;;0.70;99.90;;;;;;4940984;28;20041;-68
2021/12/19 13:40:45;;;;;;;14.90;6.80;;;0.80;99.90;;;;;;4947441;28;20035;-70
2021/12/19 13:43:32;;;;;;;16.48;7.45;;;0.80;99.90;;;;;;4941712;28;20047;-69
2021/12/19 13:46:05;;;;;;;16.08;6.00;;;0.80;99.90;;;;;;4942859;28;20384;-68
2021/12/19 13:48:35;;;;;;;13.57;5.93;;;0.80;99.90;;;;;;4939088;28;20036;-69
2021/12/19 13:51:05;;;;;;;13.98;6.53;;;0.80;99.90;;;;;;4944744;28;20099;-68
2021/12/19 13:53:32;;;;;;;17.42;7.82;;;0.80;99.90;;;;;;4940787;28;20077;-69
2021/12/19 13:56:02;;;;;;;7.32;5.18;;;0.80;99.90;;;;;;4940869;28;20360;-69